createdAt,value
2023-04-09T00:00:18.776Z,28.5292
2023-04-09T00:01:22.935Z,28.5467
2023-04-09T00:02:26.905Z,28.5500
2023-04-09T00:03:30.813Z,28.5425
2023-04-09T00:04:34.765Z,28.5167
2023-04-09T00:05:38.627Z,28.4883
2023-04-09T00:06:42.535Z,28.5042
2023-04-09T00:07:46.425Z,28.5017
2023-04-09T00:08:50.813Z,28.4875
2023-04-09T00:09:54.775Z,28.4942
2023-04-09T00:10:58.914Z,28.5125
2023-04-09T00:12:02.899Z,28.5158
2023-04-09T00:13:06.723Z,28.5025
2023-04-09T00:14:10.627Z,28.5058
2023-04-09T00:15:23.996Z,28.5125
2023-04-09T00:16:19.054Z,28.5755
2023-04-09T00:17:22.958Z,28.5667
2023-04-09T00:18:26.836Z,28.5742
2023-04-09T00:19:30.718Z,28.5558
2023-04-09T00:20:34.617Z,28.5392
2023-04-09T00:21:38.850Z,28.5317
2023-04-09T00:22:42.746Z,28.5433
2023-04-09T00:23:42.942Z,28.5609
2023-04-09T00:24:46.848Z,28.5517
2023-04-09T00:25:50.738Z,28.5467
2023-04-09T00:26:54.639Z,28.5483
2023-04-09T00:27:58.515Z,28.5558
2023-04-09T00:29:02.418Z,28.5683
2023-04-09T00:30:06.308Z,28.5650
2023-04-09T00:31:10.225Z,28.5758
2023-04-09T00:32:14.084Z,28.5942
2023-04-09T00:33:17.990Z,28.6183
2023-04-09T00:34:21.880Z,28.6058
2023-04-09T00:35:25.802Z,28.5692
2023-04-09T00:36:29.900Z,28.5683
2023-04-09T00:37:33.809Z,28.5942
2023-04-09T00:38:37.709Z,28.5983
2023-04-09T00:39:41.668Z,28.5842
2023-04-09T00:40:45.504Z,28.5683
2023-04-09T00:41:49.410Z,28.5808
2023-04-09T00:42:53.297Z,28.6000
2023-04-09T00:43:57.233Z,28.6183
2023-04-09T00:45:01.131Z,28.6117
2023-04-09T00:46:05.046Z,28.6167
2023-04-09T00:47:08.953Z,28.6375
2023-04-09T00:48:12.824Z,28.6317
2023-04-09T00:49:16.728Z,28.6683
2023-04-09T00:50:20.636Z,28.6700
2023-04-09T00:51:24.543Z,28.6592
2023-04-09T00:52:28.414Z,28.6325
2023-04-09T00:53:32.323Z,28.6442
2023-04-09T00:54:36.234Z,28.6633
2023-04-09T00:55:40.141Z,28.6492
2023-04-09T00:56:44.010Z,28.6725
2023-04-09T00:57:47.935Z,28.7033
2023-04-09T00:58:52.377Z,28.6817
2023-04-09T00:59:56.443Z,28.6608
2023-04-09T01:01:00.352Z,28.6142
2023-04-09T01:02:04.276Z,28.6042
2023-04-09T01:03:08.289Z,28.6292
2023-04-09T01:04:12.211Z,28.6525
2023-04-09T01:05:16.112Z,28.6717
2023-04-09T01:06:20.176Z,28.6783
2023-04-09T01:07:24.063Z,28.6850
2023-04-09T01:08:27.965Z,28.6992
2023-04-09T01:09:31.847Z,28.7000
2023-04-09T01:10:35.762Z,28.6892
2023-04-09T01:11:39.642Z,28.7067
2023-04-09T01:12:43.542Z,28.7033
2023-04-09T01:13:47.760Z,28.7033
2023-04-09T01:14:51.659Z,28.7167
2023-04-09T01:15:55.642Z,28.7217
2023-04-09T01:16:59.542Z,28.7208
2023-04-09T01:18:03.489Z,28.7167
2023-04-09T01:19:07.343Z,28.7208
2023-04-09T01:20:11.229Z,28.7033
2023-04-09T01:21:15.355Z,28.7000
2023-04-09T01:22:19.235Z,28.6975
2023-04-09T01:23:23.138Z,28.7033
2023-04-09T01:24:27.249Z,28.6933
2023-04-09T01:25:31.150Z,28.7033
2023-04-09T01:26:35.058Z,28.6892
2023-04-09T01:27:38.968Z,28.6625
2023-04-09T01:28:42.868Z,28.6533
2023-04-09T01:29:46.760Z,28.6542
2023-04-09T01:30:50.717Z,28.6642
2023-04-09T01:31:54.833Z,28.6583
2023-04-09T01:32:58.805Z,28.6092
2023-04-09T01:34:02.873Z,28.6067
2023-04-09T01:35:06.778Z,28.6400
2023-04-09T01:36:10.676Z,28.6792
2023-04-09T01:37:14.564Z,28.7100
2023-04-09T01:38:18.471Z,28.7025
2023-04-09T01:39:22.604Z,28.6742
2023-04-09T01:40:26.508Z,28.6792
2023-04-09T01:41:30.728Z,28.6592
2023-04-09T01:42:34.617Z,28.6350
2023-04-09T01:43:38.506Z,28.6567
2023-04-09T01:44:42.419Z,28.6850
2023-04-09T01:45:46.327Z,28.6942
2023-04-09T01:46:50.299Z,28.7158
2023-04-09T01:47:54.241Z,28.7150
2023-04-09T01:48:58.361Z,28.7042
2023-04-09T01:50:02.317Z,28.6975
2023-04-09T01:51:06.287Z,28.6708
2023-04-09T01:52:10.192Z,28.6742
2023-04-09T01:53:14.090Z,28.6975
2023-04-09T01:54:17.983Z,28.7050
2023-04-09T01:55:21.885Z,28.7008
2023-04-09T01:56:25.982Z,28.6975
2023-04-09T01:57:29.876Z,28.6950
2023-04-09T01:58:33.781Z,28.6942
2023-04-09T01:59:37.965Z,28.6792
2023-04-09T02:00:41.859Z,28.6525
2023-04-09T02:01:45.833Z,28.6275
2023-04-09T02:02:49.858Z,28.6333
2023-04-09T02:03:53.877Z,28.6275
2023-04-09T02:04:57.777Z,28.6058
2023-04-09T02:05:58.126Z,28.6100
2023-04-09T02:07:02.012Z,28.6058
2023-04-09T02:08:05.913Z,28.6008
2023-04-09T02:09:09.997Z,28.6025
2023-04-09T02:11:18.988Z,28.6358
2023-04-09T02:12:22.866Z,28.7158
2023-04-09T02:13:26.771Z,28.7092
2023-04-09T02:14:30.668Z,28.7150
2023-04-09T02:15:34.585Z,28.7142
2023-04-09T02:16:38.747Z,28.6950
2023-04-09T02:17:42.656Z,28.6975
2023-04-09T02:18:46.779Z,28.6925
2023-04-09T02:19:50.650Z,28.6858
2023-04-09T02:20:54.545Z,28.6942
2023-04-09T02:21:58.437Z,28.7042
2023-04-09T02:23:02.345Z,28.7300
2023-04-09T02:24:06.259Z,28.7475
2023-04-09T02:25:10.172Z,28.7300
2023-04-09T02:26:14.051Z,28.6825
2023-04-09T02:27:18.007Z,28.6450
2023-04-09T02:28:21.874Z,28.6342
2023-04-09T02:29:25.797Z,28.6350
2023-04-09T02:30:29.664Z,28.6433
2023-04-09T02:31:33.866Z,28.6125
2023-04-09T02:32:37.831Z,28.6133
2023-04-09T02:33:41.703Z,28.6458
2023-04-09T02:34:45.601Z,28.6650
2023-04-09T02:35:49.546Z,28.6533
2023-04-09T02:36:53.404Z,28.6500
2023-04-09T02:37:57.318Z,28.6408
2023-04-09T02:39:01.438Z,28.6567
2023-04-09T02:40:05.373Z,28.6842
2023-04-09T02:41:09.257Z,28.7033
2023-04-09T02:42:13.357Z,28.6900
2023-04-09T02:43:17.273Z,28.6883
2023-04-09T02:44:21.146Z,28.6642
2023-04-09T02:45:25.062Z,28.6450
2023-04-09T02:46:29.013Z,28.6267
2023-04-09T02:47:32.968Z,28.6575
2023-04-09T02:48:36.839Z,28.6817
2023-04-09T02:49:40.742Z,28.6725
2023-04-09T02:50:44.664Z,28.6342
2023-04-09T02:51:48.623Z,28.6108
2023-04-09T02:52:52.531Z,28.6192
2023-04-09T02:53:56.732Z,28.6083
2023-04-09T02:55:00.644Z,28.5683
2023-04-09T02:56:04.525Z,28.5617
2023-04-09T02:57:08.437Z,28.5742
2023-04-09T02:58:12.312Z,28.5608
2023-04-09T02:59:16.222Z,28.5508
2023-04-09T03:00:20.117Z,28.5333
2023-04-09T03:01:24.035Z,28.5108
2023-04-09T03:02:28.091Z,28.4925
2023-04-09T03:03:32.098Z,28.5217
2023-04-09T03:04:36.033Z,28.5342
2023-04-09T03:05:39.937Z,28.4975
2023-04-09T03:06:44.053Z,28.4692
2023-04-09T03:07:47.959Z,28.4450
2023-04-09T03:08:52.281Z,28.4400
2023-04-09T03:09:56.306Z,28.4242
2023-04-09T03:11:00.184Z,28.4117
2023-04-09T03:12:04.090Z,28.4642
2023-04-09T03:13:07.982Z,28.5058
2023-04-09T03:14:11.879Z,28.5067
2023-04-09T03:15:15.785Z,28.4908
2023-04-09T03:16:19.724Z,28.4792
2023-04-09T03:17:23.593Z,28.4733
2023-04-09T03:18:27.509Z,28.4558
2023-04-09T03:19:31.395Z,28.4667
2023-04-09T03:20:35.291Z,28.4775
2023-04-09T03:21:39.184Z,28.4900
2023-04-09T03:22:43.089Z,28.5092
2023-04-09T03:23:46.974Z,28.4883
2023-04-09T03:24:50.874Z,28.4617
2023-04-09T03:25:54.774Z,28.4458
2023-04-09T03:26:58.887Z,28.4733
2023-04-09T03:28:02.830Z,28.4700
2023-04-09T03:29:06.690Z,28.4808
2023-04-09T03:30:10.595Z,28.4842
2023-04-09T03:31:14.554Z,28.4692
2023-04-09T03:32:19.174Z,28.4492
2023-04-09T03:33:23.053Z,28.4075
2023-04-09T03:34:26.963Z,28.3550
2023-04-09T03:35:30.884Z,28.3158
2023-04-09T03:36:34.777Z,28.3000
2023-04-09T03:37:38.660Z,28.2692
2023-04-09T03:38:42.576Z,28.2617
2023-04-09T03:39:46.693Z,28.2600
2023-04-09T03:40:50.606Z,28.2458
2023-04-09T03:41:54.710Z,28.2308
2023-04-09T03:42:58.632Z,28.2308
2023-04-09T03:44:02.529Z,28.1892
2023-04-09T03:45:06.424Z,28.1725
2023-04-09T03:46:10.327Z,28.1592
2023-04-09T03:47:14.442Z,28.1392
2023-04-09T03:48:18.342Z,28.1325
2023-04-09T03:49:22.472Z,28.1292
2023-04-09T03:50:26.354Z,28.1300
2023-04-09T03:51:30.265Z,28.1292
2023-04-09T03:52:34.153Z,28.1158
2023-04-09T03:53:38.087Z,28.0917
2023-04-09T03:54:42.291Z,28.0492
2023-04-09T03:55:46.198Z,28.0425
2023-04-09T03:56:50.342Z,28.0083
2023-04-09T03:57:54.247Z,28.0092
2023-04-09T03:58:58.174Z,28.0392
2023-04-09T04:00:02.073Z,28.0317
2023-04-09T04:01:05.954Z,28.0483
2023-04-09T04:02:09.934Z,28.0275
2023-04-09T04:03:13.984Z,28.0083
2023-04-09T04:04:20.468Z,28.0342
2023-04-09T04:05:20.558Z,28.0382
2023-04-09T04:06:24.468Z,28.0158
2023-04-09T04:07:28.363Z,27.9975
2023-04-09T04:08:32.280Z,27.9733
2023-04-09T04:09:36.176Z,27.9517
2023-04-09T04:10:40.084Z,27.9392
2023-04-09T04:11:43.973Z,27.9183
2023-04-09T04:12:47.942Z,27.8933
2023-04-09T04:13:51.820Z,27.8883
2023-04-09T04:14:55.739Z,27.9208
2023-04-09T04:15:59.664Z,27.8083
2023-04-09T04:17:03.761Z,27.7317
2023-04-09T04:18:07.648Z,27.6792
2023-04-09T04:19:11.874Z,27.6533
2023-04-09T04:20:15.752Z,27.6025
2023-04-09T04:21:19.657Z,27.5392
2023-04-09T04:22:26.112Z,27.3967
2023-04-09T04:23:24.909Z,27.3391
2023-04-09T04:24:28.799Z,27.2567
2023-04-09T04:25:32.712Z,27.2517
2023-04-09T04:26:36.612Z,27.2317
2023-04-09T04:27:40.525Z,27.2225
2023-04-09T04:28:44.420Z,27.1942
2023-04-09T04:29:44.515Z,27.1682
2023-04-09T04:30:48.406Z,27.1567
2023-04-09T04:31:52.347Z,27.1383
2023-04-09T04:32:56.240Z,27.1675
2023-04-09T04:34:00.195Z,27.1492
2023-04-09T04:35:04.271Z,27.1400
2023-04-09T04:36:08.166Z,27.1300
2023-04-09T04:37:12.292Z,27.1633
2023-04-09T04:38:16.181Z,27.1700
2023-04-09T04:39:20.095Z,27.1850
2023-04-09T04:40:23.960Z,27.2267
2023-04-09T04:41:27.869Z,27.2350
2023-04-09T04:42:31.961Z,27.2367
2023-04-09T04:43:35.867Z,27.2633
2023-04-09T04:44:39.979Z,27.2858
2023-04-09T04:45:43.926Z,27.3100
2023-04-09T04:46:47.799Z,27.2942
2023-04-09T04:47:51.716Z,27.3058
2023-04-09T04:48:55.587Z,27.3467
2023-04-09T04:49:59.501Z,27.3658
2023-04-09T04:51:03.373Z,27.3417
2023-04-09T04:52:07.614Z,27.3392
2023-04-09T04:53:11.499Z,27.2858
2023-04-09T04:54:15.399Z,27.2758
2023-04-09T04:55:19.289Z,27.3325
2023-04-09T04:56:23.194Z,27.3125
2023-04-09T04:57:27.085Z,27.2742
2023-04-09T04:58:31.005Z,27.2575
2023-04-09T04:59:35.111Z,27.2700
2023-04-09T05:00:39.020Z,27.3025
2023-04-09T05:01:43.015Z,27.2742
2023-04-09T05:02:47.263Z,27.2575
2023-04-09T05:03:51.216Z,27.2392
2023-04-09T05:04:55.192Z,27.2242
2023-04-09T05:05:59.078Z,27.2358
2023-04-09T05:07:02.958Z,27.2525
2023-04-09T05:08:06.872Z,27.2650
2023-04-09T05:09:10.765Z,27.2383
2023-04-09T05:10:14.660Z,27.2442
2023-04-09T05:11:18.536Z,27.2558
2023-04-09T05:12:22.690Z,27.2533
2023-04-09T05:13:26.572Z,27.3083
2023-04-09T05:14:30.484Z,27.3367
2023-04-09T05:15:34.361Z,27.3608
2023-04-09T05:16:38.291Z,27.3608
2023-04-09T05:17:42.203Z,27.3017
2023-04-09T05:18:46.106Z,27.2525
2023-04-09T05:19:49.999Z,27.2100
2023-04-09T05:20:53.912Z,27.1750
2023-04-09T05:21:58.004Z,27.1567
2023-04-09T05:23:01.930Z,27.0842
2023-04-09T05:24:05.818Z,27.0300
2023-04-09T05:25:09.701Z,26.9700
2023-04-09T05:26:13.590Z,26.9158
2023-04-09T05:27:17.502Z,26.8883
2023-04-09T05:28:21.401Z,26.8817
2023-04-09T05:29:26.890Z,26.8817
2023-04-09T05:30:30.800Z,26.8742
2023-04-09T05:31:34.681Z,26.8708
2023-04-09T05:32:38.629Z,26.8367
2023-04-09T05:33:42.487Z,26.8125
2023-04-09T05:34:46.395Z,26.8283
2023-04-09T05:35:50.301Z,26.8608
2023-04-09T05:36:54.208Z,26.8492
2023-04-09T05:37:58.293Z,26.8100
2023-04-09T05:39:02.196Z,26.7375
2023-04-09T05:40:06.414Z,26.6783
2023-04-09T05:41:10.314Z,26.6017
2023-04-09T05:42:14.235Z,26.4633
2023-04-09T05:43:18.105Z,26.3583
2023-04-09T05:44:22.007Z,26.2250
2023-04-09T05:45:25.901Z,26.1542
2023-04-09T05:46:29.911Z,26.1425
2023-04-09T05:47:33.886Z,26.0100
2023-04-09T05:48:37.772Z,25.8600
2023-04-09T05:49:41.640Z,25.7325
2023-04-09T05:50:54.475Z,25.6117
2023-04-09T05:51:50.026Z,25.5155
2023-04-09T05:52:53.934Z,25.4300
2023-04-09T05:53:57.820Z,25.3158
2023-04-09T05:55:01.766Z,25.2058
2023-04-09T05:56:05.609Z,25.1117
2023-04-09T05:57:09.760Z,25.0217
2023-04-09T05:58:13.637Z,24.9525
2023-04-09T05:59:17.536Z,24.9217
2023-04-09T06:00:21.637Z,24.8775
2023-04-09T06:01:25.548Z,24.8708
2023-04-09T06:02:29.485Z,24.8583
2023-04-09T06:03:33.470Z,24.8392
2023-04-09T06:04:37.433Z,24.8683
2023-04-09T06:05:41.330Z,24.9950
2023-04-09T06:06:45.205Z,25.1883
2023-04-09T06:07:49.120Z,25.3283
2023-04-09T06:08:53.014Z,25.4017
2023-04-09T06:09:56.910Z,25.4542
2023-04-09T06:11:00.815Z,25.4975
2023-04-09T06:12:04.754Z,25.5358
2023-04-09T06:13:08.600Z,25.5550
2023-04-09T06:14:12.509Z,25.5717
2023-04-09T06:15:16.398Z,25.5783
2023-04-09T06:16:20.335Z,25.5792
2023-04-09T06:17:20.568Z,25.5700
2023-04-09T06:18:24.440Z,25.5800
2023-04-09T06:19:28.345Z,25.5817
2023-04-09T06:20:32.235Z,25.5667
2023-04-09T06:21:36.131Z,25.5550
2023-04-09T06:22:40.012Z,25.5542
2023-04-09T06:23:43.900Z,25.5400
2023-04-09T06:24:48.132Z,25.5308
2023-04-09T06:25:52.056Z,25.5308
2023-04-09T06:26:55.946Z,25.5183
2023-04-09T06:27:59.827Z,25.5325
2023-04-09T06:29:03.695Z,25.5217
2023-04-09T06:30:07.626Z,25.5033
2023-04-09T06:31:11.537Z,25.4975
2023-04-09T06:32:15.624Z,25.5042
2023-04-09T06:33:19.595Z,25.4750
2023-04-09T06:34:23.493Z,25.4092
2023-04-09T06:35:27.399Z,25.3650
2023-04-09T06:36:31.295Z,25.3558
2023-04-09T06:37:35.192Z,25.3375
2023-04-09T06:38:39.086Z,25.3267
2023-04-09T06:39:50.553Z,25.3142
2023-04-09T06:40:47.480Z,25.2927
2023-04-09T06:41:51.373Z,25.2925
2023-04-09T06:42:55.262Z,25.2950
2023-04-09T06:43:59.145Z,25.3150
2023-04-09T06:45:03.060Z,25.3533
2023-04-09T06:46:06.958Z,25.3542
2023-04-09T06:47:10.850Z,25.3442
2023-04-09T06:48:14.951Z,25.3417
2023-04-09T06:49:18.848Z,25.3308
2023-04-09T06:50:22.978Z,25.3233
2023-04-09T06:51:26.862Z,25.3317
2023-04-09T06:52:30.775Z,25.3242
2023-04-09T06:53:34.743Z,25.3150
2023-04-09T06:54:38.594Z,25.3050
2023-04-09T06:55:42.486Z,25.2792
2023-04-09T06:56:46.380Z,25.2933
2023-04-09T06:57:50.583Z,25.3025
2023-04-09T06:58:54.489Z,25.3133
2023-04-09T06:59:58.374Z,25.2975
2023-04-09T07:01:02.298Z,25.2925
2023-04-09T07:02:06.285Z,25.3092
2023-04-09T07:03:10.253Z,25.3158
2023-04-09T07:04:14.201Z,25.3200
2023-04-09T07:05:18.323Z,25.3242
2023-04-09T07:06:22.198Z,25.3308
2023-04-09T07:07:26.315Z,25.3067
2023-04-09T07:08:30.229Z,25.2833
2023-04-09T07:09:34.131Z,25.2667
2023-04-09T07:10:38.015Z,25.2150
2023-04-09T07:11:41.894Z,25.1950
2023-04-09T07:12:45.809Z,25.1800
2023-04-09T07:13:49.692Z,25.1492
2023-04-09T07:14:53.591Z,25.1525
2023-04-09T07:15:57.508Z,25.1317
2023-04-09T07:17:01.428Z,25.0975
2023-04-09T07:18:05.309Z,25.0850
2023-04-09T07:19:09.217Z,25.0775
2023-04-09T07:20:13.314Z,25.0842
2023-04-09T07:21:17.236Z,25.0917
2023-04-09T07:22:21.114Z,25.1383
2023-04-09T07:23:25.021Z,25.1183
2023-04-09T07:24:28.905Z,25.1175
2023-04-09T07:25:32.858Z,25.1300
2023-04-09T07:26:36.706Z,25.1533
2023-04-09T07:27:40.616Z,25.1467
2023-04-09T07:28:44.503Z,25.1383
2023-04-09T07:29:48.429Z,25.1300
2023-04-09T07:30:52.316Z,25.1133
2023-04-09T07:31:56.244Z,25.0775
2023-04-09T07:33:00.520Z,25.0842
2023-04-09T07:34:04.423Z,25.0767
2023-04-09T07:35:08.307Z,25.0942
2023-04-09T07:36:12.463Z,25.1042
2023-04-09T07:37:16.379Z,25.1033
2023-04-09T07:38:20.281Z,25.1025
2023-04-09T07:39:24.174Z,25.0950
2023-04-09T07:40:24.685Z,25.0818
2023-04-09T07:41:28.590Z,25.0908
2023-04-09T07:42:32.698Z,25.1050
2023-04-09T07:43:36.589Z,25.0908
2023-04-09T07:44:40.500Z,25.0783
2023-04-09T07:45:44.411Z,25.0708
2023-04-09T07:46:48.346Z,25.0708
2023-04-09T07:47:52.251Z,25.0733
2023-04-09T07:48:56.137Z,25.0550
2023-04-09T07:50:00.060Z,25.0050
2023-04-09T07:51:04.170Z,24.9942
2023-04-09T07:52:08.083Z,24.9333
2023-04-09T07:53:11.964Z,24.9158
2023-04-09T07:54:15.862Z,24.8725
2023-04-09T07:55:20.022Z,24.8550
2023-04-09T07:56:23.935Z,24.8417
2023-04-09T07:57:27.821Z,24.8267
2023-04-09T07:58:31.714Z,24.8017
2023-04-09T07:59:35.608Z,24.8158
2023-04-09T08:00:36.050Z,24.8264
2023-04-09T08:01:39.968Z,24.8175
2023-04-09T08:02:43.970Z,24.7950
2023-04-09T08:03:48.102Z,24.7625
2023-04-09T08:04:52.109Z,24.7683
2023-04-09T08:05:52.612Z,24.7645
2023-04-09T08:06:56.505Z,24.7875
2023-04-09T08:08:00.425Z,24.7792
2023-04-09T08:09:04.308Z,24.7858
2023-04-09T08:10:08.206Z,24.7842
2023-04-09T08:11:12.102Z,24.7875
2023-04-09T08:12:16.025Z,24.7775
2023-04-09T08:13:19.901Z,24.7667
2023-04-09T08:14:23.807Z,24.7817
2023-04-09T08:15:27.775Z,24.7950
2023-04-09T08:16:31.662Z,24.7808
2023-04-09T08:17:35.540Z,24.7658
2023-04-09T08:18:39.632Z,24.7400
2023-04-09T08:19:43.534Z,24.6600
2023-04-09T08:20:47.647Z,24.6067
2023-04-09T08:21:51.554Z,24.5792
2023-04-09T08:22:55.443Z,24.5817
2023-04-09T08:23:59.358Z,24.6042
2023-04-09T08:25:03.250Z,24.5983
2023-04-09T08:26:07.136Z,24.6250
2023-04-09T08:27:11.036Z,24.6375
2023-04-09T08:28:14.966Z,24.6167
2023-04-09T08:29:18.834Z,24.5958
2023-04-09T08:30:22.782Z,24.5908
2023-04-09T08:31:26.681Z,24.5833
2023-04-09T08:32:30.628Z,24.6167
2023-04-09T08:33:34.498Z,24.6592
2023-04-09T08:34:38.410Z,24.6042
2023-04-09T08:35:42.299Z,24.5808
2023-04-09T08:36:46.249Z,24.5575
2023-04-09T08:37:50.100Z,24.5917
2023-04-09T08:38:54.099Z,24.5600
2023-04-09T08:39:58.122Z,24.6017
2023-04-09T08:41:02.044Z,24.5783
2023-04-09T08:42:05.939Z,24.7367
2023-04-09T08:43:10.067Z,24.7242
2023-04-09T08:44:13.961Z,24.7608
2023-04-09T08:45:17.874Z,24.8008
2023-04-09T08:46:21.779Z,24.7992
2023-04-09T08:47:25.717Z,24.7700
2023-04-09T08:48:29.683Z,24.6833
2023-04-09T08:49:33.576Z,24.6433
2023-04-09T08:50:37.806Z,24.6758
2023-04-09T08:51:41.696Z,24.6600
2023-04-09T08:52:45.600Z,24.6367
2023-04-09T08:53:49.721Z,24.6225
2023-04-09T08:54:53.650Z,24.6092
2023-04-09T08:55:57.550Z,24.5958
2023-04-09T08:57:01.466Z,24.5608
2023-04-09T08:58:05.356Z,24.5617
2023-04-09T08:59:09.260Z,24.6317
2023-04-09T09:00:13.148Z,24.6550
2023-04-09T09:01:17.084Z,24.6575
2023-04-09T09:02:21.035Z,24.6858
2023-04-09T09:03:25.040Z,24.6958
2023-04-09T09:04:29.025Z,24.6400
2023-04-09T09:05:32.940Z,24.6175
2023-04-09T09:06:36.843Z,24.5867
2023-04-09T09:07:40.736Z,24.5233
2023-04-09T09:08:44.629Z,24.5325
2023-04-09T09:09:48.529Z,24.5692
2023-04-09T09:10:52.428Z,24.6250
2023-04-09T09:11:56.336Z,24.6208
2023-04-09T09:13:00.282Z,24.6208
2023-04-09T09:14:04.195Z,24.6100
2023-04-09T09:15:08.093Z,24.6542
2023-04-09T09:16:12.053Z,24.6800
2023-04-09T09:17:15.947Z,24.7100
2023-04-09T09:18:19.850Z,24.6350
2023-04-09T09:19:23.751Z,24.5883
2023-04-09T09:20:27.803Z,24.5625
2023-04-09T09:21:31.758Z,24.5725
2023-04-09T09:22:35.644Z,24.5575
2023-04-09T09:23:39.553Z,24.5358
2023-04-09T09:24:43.450Z,24.5458
2023-04-09T09:25:47.366Z,24.5542
2023-04-09T09:26:51.270Z,24.5642
2023-04-09T09:27:55.422Z,24.5900
2023-04-09T09:28:59.328Z,24.6358
2023-04-09T09:30:03.208Z,24.6725
2023-04-09T09:31:07.119Z,24.6808
2023-04-09T09:32:10.991Z,24.6842
2023-04-09T09:33:14.895Z,24.6433
2023-04-09T09:34:18.821Z,24.6217
2023-04-09T09:35:22.782Z,24.6092
2023-04-09T09:36:26.663Z,24.5950
2023-04-09T09:37:30.562Z,24.5717
2023-04-09T09:38:34.441Z,24.5825
2023-04-09T09:39:38.352Z,24.5900
2023-04-09T09:40:42.240Z,24.5842
2023-04-09T09:41:46.148Z,24.5317
2023-04-09T09:42:50.047Z,24.4967
2023-04-09T09:43:53.946Z,24.4833
2023-04-09T09:44:57.834Z,24.4717
2023-04-09T09:46:02.002Z,24.4683
2023-04-09T09:47:05.931Z,24.4767
2023-04-09T09:48:10.133Z,24.4767
2023-04-09T09:49:14.021Z,24.4467
2023-04-09T09:50:18.017Z,24.4483
2023-04-09T09:51:22.024Z,24.4367
2023-04-09T09:52:26.733Z,24.4267
2023-04-09T09:53:30.647Z,24.4183
2023-04-09T09:54:34.546Z,24.4125
2023-04-09T09:55:38.455Z,24.4225
2023-04-09T09:56:42.365Z,24.4092
2023-04-09T09:57:46.284Z,24.3808
2023-04-09T09:58:50.651Z,24.3508
2023-04-09T09:59:54.688Z,24.3725
2023-04-09T10:00:58.632Z,24.3783
2023-04-09T10:02:02.572Z,24.3800
2023-04-09T10:03:06.869Z,24.3942
2023-04-09T10:04:10.814Z,24.3858
2023-04-09T10:05:14.681Z,24.3983
2023-04-09T10:06:18.577Z,24.3842
2023-04-09T10:07:22.501Z,24.3800
2023-04-09T10:08:26.463Z,24.3800
2023-04-09T10:09:30.401Z,24.3550
2023-04-09T10:10:34.296Z,24.3683
2023-04-09T10:11:38.204Z,24.3533
2023-04-09T10:12:42.116Z,24.3383
2023-04-09T10:13:46.001Z,24.3550
2023-04-09T10:14:49.906Z,24.3267
2023-04-09T10:15:53.897Z,24.3142
2023-04-09T10:16:57.794Z,24.2908
2023-04-09T10:18:01.704Z,24.2592
2023-04-09T10:19:05.593Z,24.2300
2023-04-09T10:20:09.482Z,24.2342
2023-04-09T10:21:13.379Z,24.2058
2023-04-09T10:22:17.261Z,24.1925
2023-04-09T10:23:21.168Z,24.2067
2023-04-09T10:24:25.061Z,24.2133
2023-04-09T10:25:28.961Z,24.1992
2023-04-09T10:26:32.860Z,24.1650
2023-04-09T10:27:36.758Z,24.1633
2023-04-09T10:28:40.655Z,24.1550
2023-04-09T10:29:44.555Z,24.1742
2023-04-09T10:30:48.688Z,24.1592
2023-04-09T10:31:52.574Z,24.1308
2023-04-09T10:32:56.536Z,24.1417
2023-04-09T10:34:00.394Z,24.1442
2023-04-09T10:35:04.326Z,24.1450
2023-04-09T10:36:08.194Z,24.1192
2023-04-09T10:37:12.093Z,24.1117
2023-04-09T10:38:16.013Z,24.0875
2023-04-09T10:39:19.897Z,24.0617
2023-04-09T10:40:23.776Z,24.0125
2023-04-09T10:41:27.718Z,23.9825
2023-04-09T10:42:31.583Z,23.9392
2023-04-09T10:43:35.497Z,23.9375
2023-04-09T10:44:39.378Z,23.9150
2023-04-09T10:45:43.285Z,23.9150
2023-04-09T10:46:47.221Z,23.9233
2023-04-09T10:47:51.169Z,23.8908
2023-04-09T10:48:55.020Z,23.9017
2023-04-09T10:49:58.928Z,23.8950
2023-04-09T10:51:02.817Z,23.9133
2023-04-09T10:52:07.123Z,23.8975
2023-04-09T10:53:07.159Z,23.8100
2023-04-09T10:54:11.084Z,23.7192
2023-04-09T10:55:14.972Z,23.6825
2023-04-09T10:56:18.877Z,23.5842
2023-04-09T10:57:22.762Z,23.5217
2023-04-09T10:58:26.657Z,23.5117
2023-04-09T10:59:30.549Z,23.4975
2023-04-09T11:00:34.463Z,23.4175
2023-04-09T11:01:38.467Z,23.4283
2023-04-09T11:02:42.572Z,23.4383
2023-04-09T11:03:46.552Z,23.4367
2023-04-09T11:04:50.477Z,23.4475
2023-04-09T11:05:54.353Z,23.4192
2023-04-09T11:06:58.233Z,23.3508
2023-04-09T11:08:02.128Z,23.3308
2023-04-09T11:09:02.539Z,23.2955
2023-04-09T11:10:06.452Z,23.2658
2023-04-09T11:11:10.336Z,23.2442
2023-04-09T11:12:14.248Z,23.2150
2023-04-09T11:13:14.458Z,23.1964
2023-04-09T11:14:18.366Z,23.1892
2023-04-09T11:15:22.253Z,23.2367
2023-04-09T11:16:27.883Z,23.2500
2023-04-09T11:17:27.582Z,23.2336
2023-04-09T11:18:27.907Z,23.2173
2023-04-09T11:19:31.787Z,23.1883
2023-04-09T11:20:35.725Z,23.1800
2023-04-09T11:21:39.578Z,23.1300
2023-04-09T11:22:43.488Z,23.0950
2023-04-09T11:23:47.597Z,23.0767
2023-04-09T11:24:51.508Z,23.0892
2023-04-09T11:25:55.614Z,23.0742
2023-04-09T11:26:59.516Z,23.0383
2023-04-09T11:28:03.406Z,22.9925
2023-04-09T11:29:07.305Z,22.9442
2023-04-09T11:30:11.243Z,22.9475
2023-04-09T11:31:15.151Z,22.8900
2023-04-09T11:32:19.000Z,22.8467
2023-04-09T11:33:23.139Z,22.8300
2023-04-09T11:34:27.021Z,22.8125
2023-04-09T11:35:30.984Z,22.8808
2023-04-09T11:36:35.088Z,22.8742
2023-04-09T11:37:38.988Z,22.8058
2023-04-09T11:38:42.881Z,22.7483
2023-04-09T11:39:46.779Z,22.8150
2023-04-09T11:40:50.901Z,22.8617
2023-04-09T11:41:54.821Z,22.8142
2023-04-09T11:42:58.686Z,22.8017
2023-04-09T11:44:02.577Z,22.7733
2023-04-09T11:45:06.496Z,22.7450
2023-04-09T11:46:10.377Z,22.6867
2023-04-09T11:47:14.285Z,22.5700
2023-04-09T11:48:18.228Z,22.5108
2023-04-09T11:49:22.152Z,22.4800
2023-04-09T11:50:26.025Z,22.4283
2023-04-09T11:51:29.928Z,22.4458
2023-04-09T11:52:33.813Z,22.4158
2023-04-09T11:53:37.726Z,22.4250
2023-04-09T11:54:41.624Z,22.4108
2023-04-09T11:55:45.618Z,22.4325
2023-04-09T11:56:49.764Z,22.3708
2023-04-09T11:57:53.679Z,22.2617
2023-04-09T11:58:57.575Z,22.2367
2023-04-09T12:00:03.806Z,22.1892
2023-04-09T12:01:03.897Z,22.1382
2023-04-09T12:02:07.885Z,22.0425
2023-04-09T12:03:12.135Z,22.0758
2023-04-09T12:04:16.587Z,22.0142
2023-04-09T12:05:20.549Z,21.9808
2023-04-09T12:06:24.558Z,21.9983
2023-04-09T12:07:28.437Z,22.0183
2023-04-09T12:08:32.560Z,22.0692
2023-04-09T12:09:36.469Z,22.0542
2023-04-09T12:10:40.339Z,22.0450
2023-04-09T12:11:44.220Z,21.9950
2023-04-09T12:12:48.144Z,21.9883
2023-04-09T12:13:52.033Z,21.8942
2023-04-09T12:14:55.920Z,21.9050
2023-04-09T12:16:00.050Z,21.8858
2023-04-09T12:17:03.967Z,21.8592
2023-04-09T12:18:07.932Z,21.7708
2023-04-09T12:19:12.044Z,21.6875
2023-04-09T12:20:15.954Z,21.9642
2023-04-09T12:21:19.836Z,21.8625
2023-04-09T12:22:23.742Z,21.8558
2023-04-09T12:23:27.641Z,21.7692
2023-04-09T12:24:31.546Z,21.7642
2023-04-09T12:25:35.460Z,21.8117
2023-04-09T12:26:39.338Z,21.8008
2023-04-09T12:27:43.223Z,21.7392
2023-04-09T12:28:47.137Z,21.7150
2023-04-09T12:29:51.019Z,21.6333
2023-04-09T12:30:54.920Z,21.5617
2023-04-09T12:31:58.817Z,21.5242
2023-04-09T12:33:02.735Z,21.4850
2023-04-09T12:34:06.627Z,21.5367
2023-04-09T12:35:10.508Z,21.7083
2023-04-09T12:36:14.436Z,21.7442
2023-04-09T12:37:18.295Z,21.6783
2023-04-09T12:38:22.201Z,21.7908
2023-04-09T12:39:26.106Z,21.8342
2023-04-09T12:40:30.091Z,21.7550
2023-04-09T12:41:34.399Z,21.6492
2023-04-09T12:42:38.314Z,21.6075
2023-04-09T12:43:43.943Z,21.4767
2023-04-09T12:44:42.585Z,21.4145
2023-04-09T12:45:46.483Z,21.4325
2023-04-09T12:46:50.386Z,21.4133
2023-04-09T12:47:54.278Z,21.3925
2023-04-09T12:48:58.359Z,21.4692
2023-04-09T12:50:02.284Z,21.3950
2023-04-09T12:51:06.147Z,21.2392
2023-04-09T12:52:10.055Z,21.1908
2023-04-09T12:53:13.943Z,21.1900